首页
METAR-TAF:

METAR-TAF

机场 :

上海虹桥国际机场

上海 / 虹桥, 中华人民共和国

纬度: 31-10N, 经度: 121-26E, 海拔: 7米

当前天气观测

该预报发布于39分钟前的17:30 UTC
风速6节,风向南转南东
温度 21°C
湿度 88%
气压 1009 hPa
能见度10公里或以上
1500米以下无云,无积雨云

METAR: ZSSS 061730Z 15003MPS CAVOK 21/19 Q1009 NOSIG

时间: 02:09 (18:09 UTC)

预报

该预报发布于3小时和3分钟前的15:06 UTC
预报有效从06日的 18点(UTC)到 07日的 18点(UTC)
风速8节,风向东转东南
能見度: 6000
多云层高于2000英尺

TAF: ZSSS 061506Z 0618/0718 11004MPS 6000 BKN020 TX29/0706Z TN21/0621Z

超过4000个机场的气象观测和天气预报(METAR&TAF报告)。

可查询的气象台以黄色和红色小点在地图上表示。

将鼠标移到小点上方,可查看气象台名称。

然后点击查看天气观测和预报。

如需切换地图:点击带黑十字的绿色按钮放大地图;点击带横线的绿色按钮缩小地图;或者点击绿色箭头查看邻近地区的地图。


METAR-TAF: